Time;durP1;ratioP1;P1;durP2;ratioP2;P2;SDS_P1;SDS_P2;PMS_P1;PMS_P2;Temp;Humidity;BMP_temperature;BMP_pressure;BME280_temperature;BME280_humidity;BME280_pressure;Samples;Min_cycle;Max_cycle;Signal;HPM_P1;HPM_P2
2023/08/15 00:02:08;;;;;;;11.25;7.20;;;;;;;;;;4938319;28;20391;-93
2023/08/15 00:04:35;;;;;;;11.43;7.43;;;;;;;;;;4927626;28;20053;-93
2023/08/15 00:07:04;;;;;;;13.85;8.70;;;;;;;;;;4943509;28;20034;-93
2023/08/15 00:09:34;;;;;;;14.68;9.98;;;;;;;;;;4937027;28;20039;-94
2023/08/15 00:12:01;;;;;;;15.50;8.82;;;;;;;;;;4951356;28;20038;-94
2023/08/15 00:14:27;;;;;;;17.63;9.18;;;;;;;;;;4934584;28;20030;-93
2023/08/15 00:16:54;;;;;;;19.42;9.85;;;;;;;;;;4955114;28;20027;-93
2023/08/15 00:19:24;;;;;;;16.52;10.50;;;;;;;;;;4957280;28;20046;-93
2023/08/15 00:21:51;;;;;;;17.80;9.82;;;;;;;;;;4936776;28;20602;-93
2023/08/15 00:24:18;;;;;;;23.55;11.10;;;;;;;;;;4942257;28;20038;-92
2023/08/15 00:26:44;;;;;;;18.08;10.90;;;;;;;;;;4936693;28;20031;-93
2023/08/15 00:29:10;;;;;;;19.55;9.98;;;;;;;;;;4937177;28;20023;-93
2023/08/15 00:31:36;;;;;;;16.58;11.07;;;;;;;;;;4937376;28;20053;-92
2023/08/15 00:34:02;;;;;;;19.08;10.60;;;;;;;;;;4949675;28;20039;-93
2023/08/15 00:36:28;;;;;;;18.70;10.48;;;;;;;;;;4951810;28;20122;-93
2023/08/15 00:38:55;;;;;;;16.40;9.40;;;;;;;;;;4938936;28;21217;-93
2023/08/15 00:41:21;;;;;;;20.48;10.00;;;;;;;;;;4938188;28;20379;-93
2023/08/15 00:43:47;;;;;;;17.63;9.35;;;;;;;;;;4938089;28;20028;-93
2023/08/15 00:46:14;;;;;;;16.60;9.05;;;;;;;;;;4938684;28;20042;-93
2023/08/15 00:48:40;;;;;;;16.73;10.40;;;;;;;;;;4933884;28;20039;-93
2023/08/15 00:51:10;;;;;;;20.35;9.35;;;;;;;;;;4951378;28;20544;-93
2023/08/15 00:53:42;;;;;;;15.15;9.20;;;;;;;;;;4932024;28;20051;-94
2023/08/15 00:56:21;;;;;;;18.05;8.32;;;;;;;;;;4935308;28;20037;-93
2023/08/15 00:58:47;;;;;;;15.15;8.30;;;;;;;;;;4936700;28;20027;-93
2023/08/15 01:01:15;;;;;;;11.02;7.75;;;;;;;;;;4941362;28;20045;-94
2023/08/15 01:03:42;;;;;;;10.48;7.65;;;;;;;;;;4953199;28;20051;-93
2023/08/15 01:06:08;;;;;;;18.40;9.63;;;;;;;;;;4935527;28;20406;-93
2023/08/15 01:08:34;;;;;;;18.33;9.70;;;;;;;;;;4938096;28;20288;-93
2023/08/15 01:11:04;;;;;;;20.98;9.13;;;;;;;;;;4970308;28;20023;-93
2023/08/15 01:13:34;;;;;;;24.27;10.07;;;;;;;;;;4967875;28;20026;-93
2023/08/15 01:16:01;;;;;;;16.27;8.63;;;;;;;;;;4957622;28;20027;-92
2023/08/15 01:18:30;;;;;;;23.33;9.10;;;;;;;;;;4957113;28;20764;-94
2023/08/15 01:20:57;;;;;;;14.68;9.18;;;;;;;;;;4953385;28;20031;-93
2023/08/15 01:23:40;;;;;;;12.18;8.75;;;;;;;;;;4960063;28;20034;-93
2023/08/15 01:26:06;;;;;;;16.20;8.40;;;;;;;;;;4952064;28;20491;-93
2023/08/15 01:28:32;;;;;;;16.00;8.95;;;;;;;;;;4957446;28;20498;-93
2023/08/15 01:31:18;;;;;;;17.23;8.40;;;;;;;;;;4940892;28;20529;-93
2023/08/15 01:33:44;;;;;;;;;;;;;;;;;;4958194;28;20038;-94
2023/08/15 01:36:16;;;;;;;13.45;9.73;;;;;;;;;;4957902;28;19957;-95
2023/08/15 01:38:49;;;;;;;14.15;8.68;;;;;;;;;;4971147;28;20034;-94
2023/08/15 01:41:19;;;;;;;16.35;7.88;;;;;;;;;;4955361;28;20030;-94
2023/08/15 01:43:45;;;;;;;16.13;8.20;;;;;;;;;;4958748;28;20284;-93
2023/08/15 01:46:12;;;;;;;17.38;9.07;;;;;;;;;;4954730;28;20033;-93
2023/08/15 01:48:47;;;;;;;15.27;9.27;;;;;;;;;;4958330;28;20420;-94
2023/08/15 01:51:16;;;;;;;21.70;8.57;;;;;;;;;;4955860;28;20023;-94
2023/08/15 01:53:43;;;;;;;21.63;8.35;;;;;;;;;;4942357;28;20396;-93
2023/08/15 01:56:09;;;;;;;18.15;8.95;;;;;;;;;;4941311;28;20435;-94
2023/08/15 01:58:35;;;;;;;12.10;7.80;;;;;;;;;;4955612;28;20035;-93
2023/08/15 02:01:02;;;;;;;14.57;7.90;;;;;;;;;;4937306;28;20444;-94
2023/08/15 02:03:29;;;;;;;22.25;10.48;;;;;;;;;;4943782;28;20640;-94
2023/08/15 02:05:55;;;;;;;16.63;8.45;;;;;;;;;;4971445;28;20035;-93
2023/08/15 02:08:22;;;;;;;16.13;9.18;;;;;;;;;;4939938;28;20069;-93
2023/08/15 02:10:50;;;;;;;21.20;8.68;;;;;;;;;;4951048;28;20042;-93
2023/08/15 02:13:16;;;;;;;18.13;9.00;;;;;;;;;;4954430;28;20538;-92
2023/08/15 02:15:42;;;;;;;15.25;8.93;;;;;;;;;;4938308;28;20042;-94
2023/08/15 02:18:08;;;;;;;21.00;9.70;;;;;;;;;;4954736;28;20034;-93
2023/08/15 02:20:34;;;;;;;18.42;8.98;;;;;;;;;;4936029;28;20098;-95
2023/08/15 02:23:01;;;;;;;18.98;9.40;;;;;;;;;;4937987;28;20047;-94
2023/08/15 02:25:27;;;;;;;15.02;9.35;;;;;;;;;;4935566;28;20066;-94
2023/08/15 02:27:53;;;;;;;17.73;9.00;;;;;;;;;;4941204;28;20395;-95
2023/08/15 02:30:19;;;;;;;16.85;8.05;;;;;;;;;;4936644;28;20517;-94
2023/08/15 02:32:45;;;;;;;15.07;8.70;;;;;;;;;;4940859;28;20046;-93
2023/08/15 02:35:14;;;;;;;16.55;8.48;;;;;;;;;;4936911;28;20051;-95
2023/08/15 02:37:41;;;;;;;15.18;8.93;;;;;;;;;;4940969;28;20034;-94
2023/08/15 02:40:09;;;;;;;17.75;9.55;;;;;;;;;;4936471;28;20061;-93
2023/08/15 02:42:35;;;;;;;16.75;8.35;;;;;;;;;;4939320;28;20034;-94
2023/08/15 02:45:05;;;;;;;20.80;8.60;;;;;;;;;;4936675;28;20122;-94
2023/08/15 02:47:31;;;;;;;21.23;9.70;;;;;;;;;;4957334;28;20039;-94
2023/08/15 02:49:57;;;;;;;17.02;8.70;;;;;;;;;;4953239;28;20037;-93
2023/08/15 02:52:23;;;;;;;14.40;8.80;;;;;;;;;;4939585;28;20455;-93
2023/08/15 02:54:49;;;;;;;19.13;9.30;;;;;;;;;;4933045;28;20054;-94
2023/08/15 02:57:18;;;;;;;14.35;8.57;;;;;;;;;;4938580;28;20035;-94
2023/08/15 02:59:44;;;;;;;24.92;9.70;;;;;;;;;;4938052;28;20042;-93
2023/08/15 03:02:11;;;;;;;13.50;8.68;;;;;;;;;;4939404;28;20041;-93
2023/08/15 03:04:37;;;;;;;22.55;9.20;;;;;;;;;;4941874;28;20057;-93
2023/08/15 03:07:03;;;;;;;20.25;8.82;;;;;;;;;;4936678;28;20440;-93
2023/08/15 03:09:29;;;;;;;12.82;8.80;;;;;;;;;;4936055;28;20037;-94
2023/08/15 03:11:55;;;;;;;17.85;9.30;;;;;;;;;;4940683;28;20058;-93
2023/08/15 03:14:22;;;;;;;19.63;9.23;;;;;;;;;;4937888;28;20038;-93
2023/08/15 03:16:48;;;;;;;19.02;9.43;;;;;;;;;;4935798;28;20043;-93
2023/08/15 03:19:14;;;;;;;16.98;9.18;;;;;;;;;;4932620;28;20039;-93
2023/08/15 03:21:40;;;;;;;14.63;8.27;;;;;;;;;;4937383;28;20081;-93
2023/08/15 03:24:06;;;;;;;17.70;8.48;;;;;;;;;;4940021;28;20042;-93
2023/08/15 03:26:32;;;;;;;21.08;8.00;;;;;;;;;;4952070;28;20035;-93
2023/08/15 03:28:59;;;;;;;21.38;9.77;;;;;;;;;;4937341;28;20027;-94
2023/08/15 03:31:25;;;;;;;16.13;9.35;;;;;;;;;;4939114;28;20058;-92
2023/08/15 03:33:51;;;;;;;14.23;9.23;;;;;;;;;;4940460;28;20581;-92
2023/08/15 03:36:17;;;;;;;15.00;9.10;;;;;;;;;;4942675;28;20047;-93
2023/08/15 03:38:43;;;;;;;15.73;7.97;;;;;;;;;;4955559;28;20030;-92
2023/08/15 03:41:09;;;;;;;15.27;8.38;;;;;;;;;;4939534;28;20055;-92
2023/08/15 03:43:35;;;;;;;14.68;9.27;;;;;;;;;;4938593;28;20057;-92
2023/08/15 03:46:03;;;;;;;13.52;9.20;;;;;;;;;;4952921;28;20026;-92
2023/08/15 03:48:31;;;;;;;15.50;9.05;;;;;;;;;;4951346;28;20031;-92
2023/08/15 03:50:59;;;;;;;18.67;9.45;;;;;;;;;;4939248;28;20031;-92
2023/08/15 03:53:25;;;;;;;16.60;8.82;;;;;;;;;;4921917;28;20117;-92
2023/08/15 03:55:52;;;;;;;15.43;8.82;;;;;;;;;;4918738;28;20075;-92
2023/08/15 03:58:19;;;;;;;19.23;9.18;;;;;;;;;;4932051;28;20067;-92
2023/08/15 04:00:45;;;;;;;25.58;10.20;;;;;;;;;;4934723;29;20131;-92
2023/08/15 04:03:12;;;;;;;19.08;10.10;;;;;;;;;;4919865;29;20050;-93
2023/08/15 04:05:38;;;;;;;18.67;9.02;;;;;;;;;;4935628;28;20035;-93
2023/08/15 04:08:04;;;;;;;17.90;9.82;;;;;;;;;;4913007;28;20035;-93
2023/08/15 04:10:30;;;;;;;21.25;11.23;;;;;;;;;;4921124;29;20090;-93
2023/08/15 04:12:57;;;;;;;16.83;9.82;;;;;;;;;;4916516;28;21791;-93
2023/08/15 04:15:26;;;;;;;21.48;10.55;;;;;;;;;;4917258;29;20066;-92
2023/08/15 04:17:58;;;;;;;23.20;10.52;;;;;;;;;;4917853;29;20039;-93
2023/08/15 04:20:24;;;;;;;17.55;9.63;;;;;;;;;;4933700;28;20057;-93
2023/08/15 04:22:50;;;;;;;22.75;10.98;;;;;;;;;;4933903;28;20135;-92
2023/08/15 04:25:16;;;;;;;22.08;11.10;;;;;;;;;;4912606;28;20392;-91
2023/08/15 04:27:42;;;;;;;20.30;10.73;;;;;;;;;;4913416;28;20388;-89
2023/08/15 04:30:09;;;;;;;22.30;10.73;;;;;;;;;;4914895;29;20046;-90
2023/08/15 04:32:35;;;;;;;18.15;10.70;;;;;;;;;;4933748;28;20035;-90
2023/08/15 04:35:06;;;;;;;23.23;10.38;;;;;;;;;;4929034;29;20043;-91
2023/08/15 04:37:32;;;;;;;21.70;10.88;;;;;;;;;;4930734;29;20030;-90
2023/08/15 04:39:58;;;;;;;20.77;11.35;;;;;;;;;;4928565;28;20047;-90
2023/08/15 04:42:24;;;;;;;20.05;10.75;;;;;;;;;;4929897;28;20126;-89
2023/08/15 04:44:50;;;;;;;27.20;11.15;;;;;;;;;;4914862;28;20035;-89
2023/08/15 04:47:18;;;;;;;20.00;11.00;;;;;;;;;;4916091;29;20050;-90
2023/08/15 04:49:46;;;;;;;20.67;10.25;;;;;;;;;;4922841;28;20038;-89
2023/08/15 04:52:21;;;;;;;25.73;10.48;;;;;;;;;;4926569;28;20055;-89
2023/08/15 04:54:55;;;;;;;17.00;9.05;;;;;;;;;;4973366;28;20070;-89
2023/08/15 04:57:21;;;;;;;17.58;8.98;;;;;;;;;;4936762;28;20053;-90
2023/08/15 04:59:47;;;;;;;19.98;9.38;;;;;;;;;;4936193;28;20403;-90
2023/08/15 05:02:13;;;;;;;21.67;9.32;;;;;;;;;;4938953;28;20031;-91
2023/08/15 05:04:39;;;;;;;17.83;9.48;;;;;;;;;;4939955;28;20185;-90
2023/08/15 05:07:05;;;;;;;14.57;7.97;;;;;;;;;;4941952;28;20031;-90
2023/08/15 05:09:31;;;;;;;14.25;8.88;;;;;;;;;;4951761;28;20031;-91
2023/08/15 05:11:57;;;;;;;16.10;8.77;;;;;;;;;;4954965;28;20038;-91
2023/08/15 05:14:24;;;;;;;15.45;8.45;;;;;;;;;;4936720;28;20483;-90
2023/08/15 05:16:50;;;;;;;16.23;8.75;;;;;;;;;;4941137;28;20050;-91
2023/08/15 05:19:16;;;;;;;14.07;8.00;;;;;;;;;;4958922;28;20034;-91
2023/08/15 05:21:43;;;;;;;15.48;7.70;;;;;;;;;;4974040;28;20606;-91
2023/08/15 05:24:09;;;;;;;19.88;8.65;;;;;;;;;;4936186;28;20412;-91
2023/08/15 05:26:35;;;;;;;18.63;9.77;;;;;;;;;;4956176;28;20130;-88
2023/08/15 05:29:01;;;;;;;13.38;7.03;;;;;;;;;;4936372;28;20432;-88
2023/08/15 05:31:28;;;;;;;10.65;6.07;;;;;;;;;;4941934;28;20066;-90
2023/08/15 05:33:54;;;;;;;18.67;6.53;;;;;;;;;;4953112;28;20252;-88
2023/08/15 05:36:20;;;;;;;13.73;6.25;;;;;;;;;;4937009;28;20039;-89
2023/08/15 05:38:47;;;;;;;14.57;5.68;;;;;;;;;;4950802;28;20027;-89
2023/08/15 05:41:13;;;;;;;13.35;6.10;;;;;;;;;;4932899;28;20071;-86
2023/08/15 05:43:39;;;;;;;15.32;6.88;;;;;;;;;;4939936;28;20034;-88
2023/08/15 05:46:05;;;;;;;18.10;7.00;;;;;;;;;;4937670;28;20179;-90
2023/08/15 05:48:32;;;;;;;21.92;10.10;;;;;;;;;;4939219;28;20039;-88
2023/08/15 05:50:58;;;;;;;19.40;7.25;;;;;;;;;;4940852;28;20026;-88
2023/08/15 05:53:25;;;;;;;13.77;7.03;;;;;;;;;;4938949;28;20047;-89
2023/08/15 05:55:51;;;;;;;28.75;6.97;;;;;;;;;;4948773;28;20039;-88
2023/08/15 05:58:17;;;;;;;15.63;6.00;;;;;;;;;;4950727;28;20479;-90
2023/08/15 06:00:43;;;;;;;15.27;6.95;;;;;;;;;;4939405;28;20047;-88
2023/08/15 06:03:10;;;;;;;14.80;6.55;;;;;;;;;;4941017;28;20035;-87
2023/08/15 06:05:36;;;;;;;11.35;5.57;;;;;;;;;;4939466;28;20391;-88
2023/08/15 06:08:02;;;;;;;13.15;7.10;;;;;;;;;;4952801;28;20037;-88
2023/08/15 06:10:28;;;;;;;14.45;6.25;;;;;;;;;;4940399;28;20042;-87
2023/08/15 06:12:54;;;;;;;17.75;7.28;;;;;;;;;;4953014;28;20513;-88
2023/08/15 06:15:20;;;;;;;16.27;5.88;;;;;;;;;;4936603;28;20499;-89
2023/08/15 06:17:46;;;;;;;16.48;6.82;;;;;;;;;;4935026;28;20521;-88
2023/08/15 06:20:12;;;;;;;14.15;6.25;;;;;;;;;;4921492;28;20593;-87
2023/08/15 06:22:38;;;;;;;15.07;5.65;;;;;;;;;;4923838;28;20034;-89
2023/08/15 06:25:05;;;;;;;20.73;6.18;;;;;;;;;;4924081;28;20130;-89
2023/08/15 06:27:31;;;;;;;14.02;5.65;;;;;;;;;;4926408;28;20035;-87
2023/08/15 06:29:57;;;;;;;19.35;5.35;;;;;;;;;;4920080;28;20042;-88
2023/08/15 06:32:27;;;;;;;10.45;4.07;;;;;;;;;;4924676;28;20042;-87
2023/08/15 06:34:53;;;;;;;11.98;5.22;;;;;;;;;;4937583;28;20383;-89
2023/08/15 06:37:20;;;;;;;11.32;5.15;;;;;;;;;;4954007;28;20499;-89
2023/08/15 06:39:46;;;;;;;10.38;4.80;;;;;;;;;;4937900;28;20414;-88
2023/08/15 06:42:12;;;;;;;12.75;4.93;;;;;;;;;;4939668;28;20047;-87
2023/08/15 06:44:39;;;;;;;14.57;5.07;;;;;;;;;;4939079;28;20736;-89
2023/08/15 06:47:05;;;;;;;15.77;5.65;;;;;;;;;;4922004;28;20042;-89
2023/08/15 06:49:31;;;;;;;12.63;5.00;;;;;;;;;;4922305;28;20089;-89
2023/08/15 06:51:57;;;;;;;11.38;4.63;;;;;;;;;;4922882;28;20358;-88
2023/08/15 06:54:33;;;;;;;12.32;5.15;;;;;;;;;;4940200;28;20406;-89
2023/08/15 06:57:00;;;;;;;9.35;4.85;;;;;;;;;;4938957;28;20744;-88
2023/08/15 06:59:26;;;;;;;11.15;4.88;;;;;;;;;;4922912;28;20047;-88
2023/08/15 07:01:53;;;;;;;14.85;4.80;;;;;;;;;;4934732;28;20034;-89
2023/08/15 07:04:20;;;;;;;9.45;4.63;;;;;;;;;;4921611;28;20466;-87
2023/08/15 07:06:46;;;;;;;11.07;4.57;;;;;;;;;;4945777;28;20502;-88
2023/08/15 07:09:14;;;;;;;15.02;4.60;;;;;;;;;;4953390;28;20145;-88
2023/08/15 07:11:40;;;;;;;12.93;4.43;;;;;;;;;;4938539;28;20110;-89
2023/08/15 07:14:06;;;;;;;13.65;4.78;;;;;;;;;;4918952;28;20042;-90
2023/08/15 07:16:36;;;;;;;10.68;4.70;;;;;;;;;;4924405;28;20599;-88
2023/08/15 07:19:04;;;;;;;13.05;4.43;;;;;;;;;;4924414;28;20039;-89
2023/08/15 07:21:30;;;;;;;14.52;5.50;;;;;;;;;;4921482;28;20492;-90
2023/08/15 07:23:56;;;;;;;10.93;4.05;;;;;;;;;;4922204;28;20038;-90
2023/08/15 07:26:22;;;;;;;12.20;5.43;;;;;;;;;;4921721;28;20418;-89
2023/08/15 07:28:51;;;;;;;7.07;4.63;;;;;;;;;;4921849;28;20545;-86
2023/08/15 07:31:17;;;;;;;13.15;4.60;;;;;;;;;;4922782;28;20053;-88
2023/08/15 07:33:47;;;;;;;11.60;3.80;;;;;;;;;;4924756;28;20066;-88
2023/08/15 07:36:13;;;;;;;12.98;4.53;;;;;;;;;;4920759;28;20043;-90
2023/08/15 07:38:39;;;;;;;11.20;3.22;;;;;;;;;;4923964;28;20030;-89
2023/08/15 07:41:07;;;;;;;7.47;3.72;;;;;;;;;;4917411;28;20043;-88
2023/08/15 07:43:44;;;;;;;;;;;;;;;;;;;;;
2023/08/15 07:46:10;;;;;;;5.78;3.42;;;;;;;;;;4944816;28;20031;-91
2023/08/15 07:48:38;;;;;;;9.13;3.35;;;;;;;;;;4925699;28;20038;-88
2023/08/15 07:51:04;;;;;;;14.25;3.63;;;;;;;;;;4928371;28;20414;-90
2023/08/15 07:53:30;;;;;;;14.32;3.00;;;;;;;;;;4941445;28;20055;-90
2023/08/15 07:55:57;;;;;;;7.25;2.97;;;;;;;;;;4924816;28;20046;-88
2023/08/15 07:58:26;;;;;;;7.50;2.80;;;;;;;;;;4928574;28;20046;-89
2023/08/15 08:00:53;;;;;;;9.77;3.65;;;;;;;;;;4923408;28;20046;-89
2023/08/15 08:03:19;;;;;;;11.80;3.38;;;;;;;;;;4938295;28;20035;-90
2023/08/15 08:05:45;;;;;;;12.00;3.80;;;;;;;;;;4922477;28;20038;-88
2023/08/15 08:08:13;;;;;;;11.13;2.70;;;;;;;;;;4940450;28;20031;-90
2023/08/15 08:10:40;;;;;;;14.02;2.90;;;;;;;;;;4937534;28;20504;-89
2023/08/15 08:13:09;;;;;;;11.70;3.28;;;;;;;;;;4939850;28;20027;-88
2023/08/15 08:15:35;;;;;;;11.02;2.60;;;;;;;;;;4938171;28;20034;-89
2023/08/15 08:18:01;;;;;;;9.85;3.70;;;;;;;;;;4923560;28;20266;-90
2023/08/15 08:20:29;;;;;;;9.20;2.30;;;;;;;;;;4924272;28;20061;-89
2023/08/15 08:22:55;;;;;;;5.55;2.30;;;;;;;;;;4929306;28;20046;-88
2023/08/15 08:25:22;;;;;;;6.68;2.22;;;;;;;;;;4944513;28;20135;-88
2023/08/15 08:27:49;;;;;;;6.38;2.00;;;;;;;;;;4959141;28;20220;-90
2023/08/15 08:30:16;;;;;;;8.43;2.35;;;;;;;;;;4939240;28;20118;-90
2023/08/15 08:32:43;;;;;;;7.07;2.28;;;;;;;;;;4945573;28;20026;-88
2023/08/15 08:35:10;;;;;;;5.82;2.03;;;;;;;;;;4925927;28;20165;-88
2023/08/15 08:37:36;;;;;;;8.07;2.05;;;;;;;;;;4930709;28;20045;-89
2023/08/15 08:40:04;;;;;;;5.85;1.60;;;;;;;;;;4931344;28;20061;-91
2023/08/15 08:42:31;;;;;;;9.68;2.50;;;;;;;;;;4960046;28;20118;-89
2023/08/15 08:44:58;;;;;;;10.07;2.30;;;;;;;;;;4954593;28;20030;-90
2023/08/15 08:47:28;;;;;;;7.97;2.35;;;;;;;;;;4972654;28;20045;-90
2023/08/15 08:50:01;;;;;;;10.88;1.88;;;;;;;;;;4972362;28;20391;-89
2023/08/15 08:52:28;;;;;;;4.15;1.70;;;;;;;;;;4953028;28;20112;-88
2023/08/15 08:54:54;;;;;;;7.40;1.92;;;;;;;;;;4956402;28;20070;-91
2023/08/15 08:57:22;;;;;;;8.15;2.38;;;;;;;;;;4938722;28;20571;-90
2023/08/15 08:59:49;;;;;;;5.35;2.08;;;;;;;;;;4946126;28;20050;-90
2023/08/15 09:02:19;;;;;;;5.80;2.25;;;;;;;;;;4937636;28;20054;-91
2023/08/15 09:04:46;;;;;;;8.75;2.47;;;;;;;;;;4948033;28;20039;-89
2023/08/15 09:07:12;;;;;;;7.65;2.03;;;;;;;;;;4932168;28;20040;-92
2023/08/15 09:09:39;;;;;;;8.60;2.60;;;;;;;;;;4931819;28;20027;-90
2023/08/15 09:12:06;;;;;;;7.70;2.40;;;;;;;;;;4952896;28;20082;-90
2023/08/15 09:14:32;;;;;;;5.50;1.73;;;;;;;;;;4934343;28;20109;-90
2023/08/15 09:17:11;;;;;;;4.78;2.95;;;;;;;;;;4953588;28;20046;-90
2023/08/15 09:19:48;;;;;;;5.97;2.63;;;;;;;;;;4954417;28;20049;-91
2023/08/15 09:22:20;;;;;;;7.95;2.28;;;;;;;;;;4948373;28;20034;-90
2023/08/15 09:24:47;;;;;;;3.35;1.80;;;;;;;;;;4948708;28;20038;-91
2023/08/15 09:27:14;;;;;;;6.07;2.38;;;;;;;;;;4934103;28;20730;-91
2023/08/15 09:29:40;;;;;;;5.88;2.30;;;;;;;;;;4952584;28;20034;-91
2023/08/15 09:32:08;;;;;;;7.85;2.35;;;;;;;;;;4936715;28;20105;-90
2023/08/15 09:34:34;;;;;;;5.55;2.20;;;;;;;;;;4964634;28;20023;-91
2023/08/15 09:37:18;;;;;;;5.13;1.88;;;;;;;;;;4935688;28;20114;-90
2023/08/15 09:39:45;;;;;;;7.30;2.00;;;;;;;;;;4966015;28;20047;-91
2023/08/15 09:42:13;;;;;;;5.93;1.75;;;;;;;;;;4966330;28;20034;-91
2023/08/15 09:44:44;;;;;;;8.07;2.25;;;;;;;;;;4952692;28;20031;-93
2023/08/15 09:47:11;;;;;;;9.32;2.05;;;;;;;;;;4933729;28;20043;-91
2023/08/15 09:49:49;;;;;;;7.75;2.20;;;;;;;;;;4953382;28;20505;-90
2023/08/15 09:52:16;;;;;;;7.22;2.20;;;;;;;;;;4936681;28;20031;-90
2023/08/15 09:54:43;;;;;;;9.35;3.00;;;;;;;;;;4957385;28;20574;-90
2023/08/15 09:57:10;;;;;;;9.60;2.10;;;;;;;;;;4951320;28;20562;-89
2023/08/15 09:59:36;;;;;;;6.47;1.80;;;;;;;;;;4943564;28;20176;-90
2023/08/15 10:05:23;;;;;;;4.65;2.00;;;;;;;;;;4884196;28;20037;-88
2023/08/15 10:07:51;;;;;;;9.70;2.88;;;;;;;;;;4977126;28;20065;-89
2023/08/15 10:10:18;;;;;;;5.22;2.30;;;;;;;;;;4964119;28;20026;-89
2023/08/15 10:12:45;;;;;;;4.53;2.30;;;;;;;;;;4940951;28;20530;-88
2023/08/15 10:15:12;;;;;;;6.65;1.85;;;;;;;;;;4951459;28;20031;-88
2023/08/15 10:18:36;;;;;;;3.42;1.42;;;;;;;;;;4954415;28;20038;-89
2023/08/15 10:20:57;;;;;;;3.75;1.50;;;;;;;;;;4961266;28;20499;-88
2023/08/15 10:23:28;;;;;;;7.57;2.17;;;;;;;;;;4973712;28;20054;-88
2023/08/15 10:25:54;;;;;;;3.45;1.70;;;;;;;;;;4969665;28;20129;-88
2023/08/15 10:28:28;;;;;;;5.15;1.95;;;;;;;;;;4964628;28;20052;-89
2023/08/15 10:30:54;;;;;;;2.35;1.83;;;;;;;;;;4954616;28;20464;-89
2023/08/15 10:33:25;;;;;;;6.85;2.25;;;;;;;;;;4951231;28;20050;-90
2023/08/15 10:35:54;;;;;;;7.63;2.33;;;;;;;;;;4949738;28;20035;-89
2023/08/15 10:38:58;;;;;;;1.70;1.00;;;;;;;;;;4964469;28;20042;-89
2023/08/15 10:41:28;;;;;;;7.97;2.85;;;;;;;;;;4912091;28;20076;-90
2023/08/15 10:43:55;;;;;;;3.25;1.35;;;;;;;;;;4956635;28;20047;-89
2023/08/15 10:46:39;;;;;;;4.00;1.90;;;;;;;;;;4951756;28;20034;-89
2023/08/15 10:49:08;;;;;;;3.05;2.67;;;;;;;;;;4950861;28;20034;-89
2023/08/15 10:51:38;;;;;;;3.85;1.42;;;;;;;;;;4974188;28;20022;-90
2023/08/15 10:54:06;;;;;;;2.65;1.27;;;;;;;;;;4951130;28;20034;-89
2023/08/15 10:56:39;;;;;;;4.93;1.65;;;;;;;;;;4937479;28;20519;-89
2023/08/15 10:59:23;;;;;;;5.63;1.80;;;;;;;;;;4930345;29;20047;-89
2023/08/15 11:01:49;;;;;;;5.90;2.13;;;;;;;;;;4933271;28;20035;-89
2023/08/15 11:04:25;;;;;;;3.92;1.50;;;;;;;;;;4912825;29;20161;-88
2023/08/15 11:06:52;;;;;;;6.45;1.95;;;;;;;;;;4932915;28;20031;-90
2023/08/15 11:09:19;;;;;;;3.97;1.83;;;;;;;;;;4916271;28;20071;-88
2023/08/15 11:11:46;;;;;;;3.40;1.85;;;;;;;;;;4936655;29;20039;-89
2023/08/15 11:14:16;;;;;;;4.50;1.80;;;;;;;;;;4911847;28;20418;-89
2023/08/15 11:16:43;;;;;;;3.63;1.50;;;;;;;;;;4929595;28;20039;-90
2023/08/15 11:19:09;;;;;;;3.05;1.75;;;;;;;;;;4928304;28;20086;-91
2023/08/15 11:21:38;;;;;;;3.45;2.05;;;;;;;;;;4915770;29;20039;-89
2023/08/15 11:24:08;;;;;;;5.55;1.83;;;;;;;;;;4913976;28;20408;-89
2023/08/15 11:26:34;;;;;;;3.65;1.70;;;;;;;;;;4912330;29;20911;-89
2023/08/15 11:29:00;;;;;;;5.68;1.40;;;;;;;;;;4922455;28;20242;-89
2023/08/15 11:31:28;;;;;;;6.60;1.83;;;;;;;;;;4909981;28;20027;-89
2023/08/15 11:33:54;;;;;;;5.43;1.70;;;;;;;;;;4910598;28;20063;-89
2023/08/15 11:36:22;;;;;;;2.75;1.27;;;;;;;;;;4925369;28;20455;-90
2023/08/15 11:38:59;;;;;;;4.05;1.67;;;;;;;;;;4922355;28;20313;-90
2023/08/15 11:41:25;;;;;;;5.30;1.60;;;;;;;;;;4913954;28;20617;-90
2023/08/15 11:43:51;;;;;;;6.55;2.45;;;;;;;;;;4914541;28;20036;-89
2023/08/15 11:46:17;;;;;;;4.32;1.80;;;;;;;;;;4909824;29;20564;-90
2023/08/15 11:48:45;;;;;;;6.55;2.17;;;;;;;;;;4926116;29;20058;-89
2023/08/15 11:51:11;;;;;;;7.68;1.92;;;;;;;;;;4906452;28;20039;-90
2023/08/15 11:53:37;;;;;;;4.82;1.77;;;;;;;;;;4920960;29;20091;-88
2023/08/15 11:56:03;;;;;;;4.13;1.40;;;;;;;;;;4922291;28;20054;-90
2023/08/15 11:58:30;;;;;;;6.45;1.70;;;;;;;;;;4941888;28;20039;-91
2023/08/15 12:01:02;;;;;;;4.88;1.60;;;;;;;;;;4959765;28;20071;-91
2023/08/15 12:03:42;;;;;;;5.40;1.67;;;;;;;;;;4945875;28;20050;-89
2023/08/15 12:06:15;;;;;;;1.60;1.30;;;;;;;;;;4942010;28;20141;-89
2023/08/15 12:08:44;;;;;;;3.35;1.50;;;;;;;;;;4945235;28;20023;-90
2023/08/15 12:11:12;;;;;;;3.72;1.65;;;;;;;;;;4941640;28;20019;-89
2023/08/15 12:13:39;;;;;;;6.40;1.50;;;;;;;;;;4929901;28;20027;-89
2023/08/15 12:16:08;;;;;;;5.13;1.60;;;;;;;;;;4953873;28;20343;-90
2023/08/15 12:18:34;;;;;;;5.10;1.77;;;;;;;;;;4961358;28;20031;-90
2023/08/15 12:21:01;;;;;;;6.70;2.20;;;;;;;;;;4956596;28;20034;-90
2023/08/15 12:23:31;;;;;;;8.68;2.05;;;;;;;;;;4940979;28;20086;-88
2023/08/15 12:26:03;;;;;;;6.47;1.85;;;;;;;;;;4942558;28;20043;-91
2023/08/15 12:28:29;;;;;;;5.38;1.70;;;;;;;;;;4927445;28;20034;-90
2023/08/15 12:30:56;;;;;;;10.23;2.30;;;;;;;;;;4939014;28;20046;-90
2023/08/15 12:33:23;;;;;;;4.18;1.98;;;;;;;;;;4940029;28;20089;-91
2023/08/15 12:35:49;;;;;;;5.65;1.83;;;;;;;;;;4943036;28;20035;-90
2023/08/15 12:38:15;;;;;;;6.25;1.83;;;;;;;;;;4944314;28;20075;-91
2023/08/15 12:40:41;;;;;;;9.18;2.17;;;;;;;;;;4941064;28;20039;-90
2023/08/15 12:43:08;;;;;;;5.75;2.00;;;;;;;;;;4938441;28;20061;-90
2023/08/15 12:45:34;;;;;;;8.82;1.67;;;;;;;;;;4927946;28;20031;-90
2023/08/15 12:48:03;;;;;;;6.57;2.00;;;;;;;;;;4925125;28;20041;-90
2023/08/15 12:50:30;;;;;;;8.13;2.45;;;;;;;;;;4940363;28;20074;-89
2023/08/15 12:52:56;;;;;;;5.47;2.00;;;;;;;;;;4957119;28;20066;-91
2023/08/15 12:55:23;;;;;;;3.47;1.90;;;;;;;;;;4930394;28;20089;-90
2023/08/15 12:58:00;;;;;;;7.25;1.98;;;;;;;;;;4939534;28;20137;-91
2023/08/15 13:00:26;;;;;;;4.32;1.77;;;;;;;;;;4931702;28;20031;-89
2023/08/15 13:03:09;;;;;;;5.47;2.03;;;;;;;;;;4943402;28;20133;-90
2023/08/15 13:05:36;;;;;;;6.05;1.60;;;;;;;;;;4930831;28;20043;-89
2023/08/15 13:08:02;;;;;;;4.32;1.70;;;;;;;;;;4933525;28;20031;-90
2023/08/15 13:10:30;;;;;;;7.13;1.60;;;;;;;;;;4945477;28;20066;-90
2023/08/15 13:12:57;;;;;;;4.25;2.08;;;;;;;;;;4945242;28;20113;-91
2023/08/15 13:15:26;;;;;;;4.22;1.98;;;;;;;;;;4943852;28;20043;-89
2023/08/15 13:17:52;;;;;;;6.25;1.77;;;;;;;;;;4943893;28;20039;-90
2023/08/15 13:20:18;;;;;;;4.55;1.98;;;;;;;;;;4944966;28;20043;-89
2023/08/15 13:22:53;;;;;;;5.25;2.08;;;;;;;;;;4932719;28;20042;-89
2023/08/15 13:25:19;;;;;;;5.53;1.90;;;;;;;;;;4933481;28;20049;-89
2023/08/15 13:27:45;;;;;;;6.95;2.03;;;;;;;;;;4932543;28;20400;-89
2023/08/15 13:30:14;;;;;;;4.35;1.95;;;;;;;;;;4929467;28;20035;-89
2023/08/15 13:32:40;;;;;;;5.80;1.63;;;;;;;;;;4929078;28;20058;-90
2023/08/15 13:35:08;;;;;;;3.95;1.63;;;;;;;;;;4953067;28;20039;-89
2023/08/15 13:37:37;;;;;;;11.02;2.10;;;;;;;;;;4946120;28;20057;-88
2023/08/15 13:40:03;;;;;;;6.43;1.98;;;;;;;;;;4937555;28;20051;-89
2023/08/15 13:42:46;;;;;;;5.53;2.08;;;;;;;;;;4930138;28;20376;-89
2023/08/15 13:45:17;;;;;;;5.85;2.00;;;;;;;;;;4943540;28;20549;-88
2023/08/15 13:47:43;;;;;;;5.18;1.88;;;;;;;;;;4935420;28;20035;-89
2023/08/15 13:50:09;;;;;;;7.30;1.88;;;;;;;;;;4937831;28;20030;-90
2023/08/15 13:52:36;;;;;;;8.45;2.83;;;;;;;;;;4951041;28;20035;-89
2023/08/15 13:55:06;;;;;;;3.33;1.50;;;;;;;;;;4947553;28;20065;-89
2023/08/15 13:57:33;;;;;;;5.05;1.80;;;;;;;;;;4947639;28;20536;-88
2023/08/15 14:00:02;;;;;;;4.75;2.42;;;;;;;;;;4962050;28;20026;-88
2023/08/15 14:02:29;;;;;;;6.93;2.53;;;;;;;;;;4952123;28;20039;-89
2023/08/15 14:04:58;;;;;;;9.15;2.10;;;;;;;;;;4934468;28;20125;-89
2023/08/15 14:07:24;;;;;;;4.32;1.65;;;;;;;;;;4930906;28;20031;-89
2023/08/15 14:09:57;;;;;;;7.70;1.73;;;;;;;;;;4932953;28;20038;-89
2023/08/15 14:12:26;;;;;;;4.20;2.08;;;;;;;;;;4933106;28;20557;-89
2023/08/15 14:14:53;;;;;;;3.90;1.95;;;;;;;;;;4947803;28;20093;-89
2023/08/15 14:17:20;;;;;;;4.97;1.98;;;;;;;;;;4933735;28;20049;-88
2023/08/15 14:19:47;;;;;;;4.82;2.15;;;;;;;;;;4947845;28;20039;-89
2023/08/15 14:22:15;;;;;;;9.20;2.42;;;;;;;;;;4965935;28;20034;-88
2023/08/15 14:24:48;;;;;;;5.40;2.15;;;;;;;;;;4945964;28;20031;-89
2023/08/15 14:27:15;;;;;;;6.80;2.20;;;;;;;;;;4934178;28;20043;-89
2023/08/15 14:29:50;;;;;;;9.07;2.60;;;;;;;;;;4949363;28;20093;-88
2023/08/15 14:32:18;;;;;;;9.07;2.63;;;;;;;;;;4939814;28;20031;-89
2023/08/15 14:34:45;;;;;;;7.43;3.25;;;;;;;;;;4931940;28;20434;-88
2023/08/15 14:37:12;;;;;;;8.80;2.67;;;;;;;;;;4950627;28;20034;-89
2023/08/15 14:39:38;;;;;;;6.20;2.58;;;;;;;;;;4933893;28;20035;-88
2023/08/15 14:42:04;;;;;;;5.97;2.75;;;;;;;;;;4957175;28;20038;-89
2023/08/15 14:44:32;;;;;;;3.75;1.85;;;;;;;;;;4957700;28;20379;-90